createdAt,value
2019-01-11T00:00:45.723Z,0.00
2019-01-11T00:01:45.677Z,0.00
2019-01-11T00:02:45.622Z,0.00
2019-01-11T00:03:45.590Z,0.00
2019-01-11T00:04:45.545Z,0.00
2019-01-11T00:05:45.509Z,0.00
2019-01-11T00:06:45.451Z,0.00
2019-01-11T00:07:45.397Z,0.00
2019-01-11T00:08:45.359Z,0.00
2019-01-11T00:09:45.322Z,0.00
2019-01-11T00:10:45.283Z,0.00
2019-01-11T00:11:45.238Z,0.00
2019-01-11T00:12:45.194Z,0.00
2019-01-11T00:13:45.183Z,0.00
2019-01-11T00:14:45.082Z,0.00
2019-01-11T00:15:45.039Z,0.00
2019-01-11T00:16:44.991Z,0.00
2019-01-11T00:17:44.959Z,0.00
2019-01-11T00:18:44.914Z,0.00
2019-01-11T00:19:44.863Z,0.00
2019-01-11T00:20:44.836Z,0.00
2019-01-11T00:21:44.769Z,0.00
2019-01-11T00:22:44.733Z,0.00
2019-01-11T00:23:44.698Z,0.00
2019-01-11T00:24:44.642Z,0.00
2019-01-11T00:25:44.606Z,0.00
2019-01-11T00:26:44.553Z,0.00
2019-01-11T00:27:44.495Z,0.00
2019-01-11T00:28:44.449Z,0.00
2019-01-11T00:29:44.425Z,0.00
2019-01-11T00:30:44.371Z,0.00
2019-01-11T00:31:44.334Z,0.00
2019-01-11T00:32:44.280Z,0.00
2019-01-11T00:33:44.244Z,0.00
2019-01-11T00:34:44.199Z,0.00
2019-01-11T00:35:44.140Z,0.00
2019-01-11T00:36:44.113Z,0.00
2019-01-11T00:37:44.043Z,0.00
2019-01-11T00:38:44.018Z,0.00
2019-01-11T00:39:43.966Z,0.00
2019-01-11T00:40:43.918Z,0.00
2019-01-11T00:41:43.867Z,0.00
2019-01-11T00:42:43.836Z,0.00
2019-01-11T00:43:43.782Z,0.00
2019-01-11T00:44:43.774Z,0.00
2019-01-11T00:45:43.692Z,0.00
2019-01-11T00:46:43.634Z,0.00
2019-01-11T00:47:43.601Z,0.00
2019-01-11T00:48:43.542Z,0.00
2019-01-11T00:49:43.504Z,0.00
2019-01-11T00:50:43.475Z,0.00
2019-01-11T00:51:43.422Z,0.00
2019-01-11T00:52:43.371Z,0.00
2019-01-11T00:53:43.323Z,0.00
2019-01-11T00:54:43.270Z,0.00
2019-01-11T00:55:43.238Z,0.00
2019-01-11T00:56:43.201Z,0.00
2019-01-11T00:57:43.142Z,0.00
2019-01-11T00:58:43.090Z,0.00
2019-01-11T00:59:43.065Z,0.00
2019-01-11T01:00:42.999Z,0.00
2019-01-11T01:01:42.977Z,0.00
2019-01-11T01:02:42.915Z,0.00
2019-01-11T01:03:42.871Z,0.00
2019-01-11T01:04:42.825Z,0.00
2019-01-11T01:05:42.780Z,0.00
2019-01-11T01:06:42.698Z,0.00
2019-01-11T01:07:42.682Z,0.00
2019-01-11T01:08:42.644Z,0.00
2019-01-11T01:09:42.595Z,0.00
2019-01-11T01:10:42.547Z,0.00
2019-01-11T01:11:42.513Z,0.00
2019-01-11T01:12:42.477Z,0.00
2019-01-11T01:13:42.423Z,0.00
2019-01-11T01:14:42.386Z,0.00
2019-01-11T01:15:42.342Z,0.00
2019-01-11T01:16:42.284Z,0.00
2019-01-11T01:17:42.250Z,0.00
2019-01-11T01:18:42.201Z,0.00
2019-01-11T01:19:42.153Z,0.00
2019-01-11T01:20:42.117Z,0.00
2019-01-11T01:21:42.052Z,0.00
2019-01-11T01:22:42.017Z,0.00
2019-01-11T01:23:41.958Z,0.00
2019-01-11T01:24:41.920Z,0.00
2019-01-11T01:25:41.867Z,0.00
2019-01-11T01:26:41.830Z,0.00
2019-01-11T01:27:41.777Z,0.00
2019-01-11T01:28:41.746Z,0.00
2019-01-11T01:29:41.703Z,0.00
2019-01-11T01:30:41.663Z,0.00
2019-01-11T01:31:41.596Z,0.00
2019-01-11T01:32:41.565Z,0.00
2019-01-11T01:33:41.507Z,0.00
2019-01-11T01:34:41.462Z,0.00
2019-01-11T01:35:41.416Z,0.00
2019-01-11T01:36:41.379Z,0.00
2019-01-11T01:37:41.334Z,0.00
2019-01-11T01:38:41.302Z,0.00
2019-01-11T01:39:41.248Z,0.00
2019-01-11T01:40:41.203Z,0.00
2019-01-11T01:41:41.145Z,0.00
2019-01-11T01:42:41.108Z,0.00
2019-01-11T01:43:41.061Z,0.00
2019-01-11T01:44:41.016Z,0.00
2019-01-11T01:45:40.974Z,0.00
2019-01-11T01:46:40.940Z,0.00
2019-01-11T01:47:40.883Z,0.00
2019-01-11T01:48:40.850Z,0.00
2019-01-11T01:49:40.791Z,0.00
2019-01-11T01:50:40.746Z,0.00
2019-01-11T01:51:40.714Z,0.00
2019-01-11T01:52:40.647Z,0.00
2019-01-11T01:53:40.615Z,0.00
2019-01-11T01:54:40.579Z,0.00
2019-01-11T01:55:40.525Z,0.00
2019-01-11T01:56:40.489Z,0.00
2019-01-11T01:57:40.434Z,0.00
2019-01-11T01:58:40.376Z,0.00
2019-01-11T01:59:40.333Z,0.00
2019-01-11T02:00:40.299Z,0.00
2019-01-11T02:01:40.254Z,0.00
2019-01-11T02:02:40.209Z,0.00
2019-01-11T02:03:40.159Z,0.00
2019-01-11T02:04:40.126Z,0.00
2019-01-11T02:05:40.081Z,0.00
2019-01-11T02:06:40.015Z,0.00
2019-01-11T02:07:39.993Z,0.00
2019-01-11T02:08:39.938Z,0.00
2019-01-11T02:09:39.879Z,0.00
2019-01-11T02:10:39.843Z,0.00
2019-01-11T02:11:39.810Z,0.00
2019-01-11T02:12:39.765Z,0.00
2019-01-11T02:13:39.711Z,0.00
2019-01-11T02:14:39.676Z,0.00
2019-01-11T02:15:39.608Z,0.00
2019-01-11T02:16:39.565Z,0.00
2019-01-11T02:17:39.518Z,0.00
2019-01-11T02:18:39.493Z,0.00
2019-01-11T02:19:39.435Z,0.00
2019-01-11T02:20:39.403Z,0.00
2019-01-11T02:21:39.390Z,0.00
2019-01-11T02:22:39.291Z,0.00
2019-01-11T02:23:39.259Z,0.00
2019-01-11T02:24:39.226Z,0.00
2019-01-11T02:25:39.177Z,0.00
2019-01-11T02:26:39.117Z,0.00
2019-01-11T02:27:39.072Z,0.00
2019-01-11T02:28:39.027Z,0.00
2019-01-11T02:29:38.987Z,0.00
2019-01-11T02:30:38.943Z,0.00
2019-01-11T02:31:38.898Z,0.00
2019-01-11T02:32:38.860Z,0.00
2019-01-11T02:33:38.801Z,0.00
2019-01-11T02:34:38.755Z,0.00
2019-01-11T02:35:38.717Z,0.00
2019-01-11T02:36:38.664Z,0.00
2019-01-11T02:37:38.621Z,0.00
2019-01-11T02:38:38.568Z,0.00
2019-01-11T02:39:38.530Z,0.00
2019-01-11T02:40:38.478Z,0.00
2019-01-11T02:41:38.458Z,0.00
2019-01-11T02:42:38.403Z,0.00
2019-01-11T02:43:38.363Z,0.00
2019-01-11T02:44:38.310Z,0.00
2019-01-11T02:45:38.263Z,0.00
2019-01-11T02:46:38.213Z,0.00
2019-01-11T02:47:38.174Z,0.00
2019-01-11T02:48:38.137Z,0.00
2019-01-11T02:49:40.157Z,0.00
2019-01-11T02:50:38.032Z,0.00
2019-01-11T02:51:37.997Z,0.00
2019-01-11T02:52:37.937Z,0.00
2019-01-11T02:53:37.888Z,0.00
2019-01-11T02:54:37.850Z,0.00
2019-01-11T02:55:37.824Z,0.00
2019-01-11T02:56:37.765Z,0.00
2019-01-11T02:57:37.723Z,0.00
2019-01-11T02:58:37.671Z,0.00
2019-01-11T02:59:37.627Z,0.00
2019-01-11T03:00:37.579Z,0.00
2019-01-11T03:01:37.542Z,0.00
2019-01-11T03:02:37.489Z,0.00
2019-01-11T03:03:37.444Z,0.00
2019-01-11T03:04:37.398Z,0.00
2019-01-11T03:05:37.353Z,0.00
2019-01-11T03:06:37.300Z,0.00
2019-01-11T03:07:37.262Z,0.00
2019-01-11T03:08:37.216Z,0.00
2019-01-11T03:09:37.248Z,0.00
2019-01-11T03:10:37.140Z,0.00
2019-01-11T03:11:37.080Z,0.00
2019-01-11T03:12:37.039Z,0.00
2019-01-11T03:13:37.003Z,0.00
2019-01-11T03:14:36.948Z,0.00
2019-01-11T03:15:36.892Z,0.00
2019-01-11T03:16:36.866Z,0.00
2019-01-11T03:17:36.799Z,0.00
2019-01-11T03:18:36.754Z,0.00
2019-01-11T03:19:36.715Z,0.00
2019-01-11T03:20:36.687Z,0.00
2019-01-11T03:21:36.625Z,0.00
2019-01-11T03:22:36.571Z,0.00
2019-01-11T03:23:36.533Z,0.00
2019-01-11T03:24:36.504Z,0.00
2019-01-11T03:25:36.456Z,0.00
2019-01-11T03:26:36.414Z,0.00
2019-01-11T03:27:36.359Z,0.00
2019-01-11T03:28:36.304Z,0.00
2019-01-11T03:29:36.275Z,0.00
2019-01-11T03:30:36.220Z,0.00
2019-01-11T03:31:36.192Z,0.00
2019-01-11T03:32:36.149Z,0.00
2019-01-11T03:33:36.083Z,0.00
2019-01-11T03:34:36.031Z,0.00
2019-01-11T03:35:35.995Z,0.00
2019-01-11T03:36:35.937Z,0.00
2019-01-11T03:37:35.887Z,0.00
2019-01-11T03:38:35.863Z,0.00
2019-01-11T03:39:35.816Z,0.00
2019-01-11T03:40:35.771Z,0.00
2019-01-11T03:41:35.728Z,0.00
2019-01-11T03:42:35.658Z,0.00
2019-01-11T03:43:35.619Z,0.00
2019-01-11T03:44:35.591Z,0.00
2019-01-11T03:45:35.529Z,0.00
2019-01-11T03:46:35.498Z,0.00
2019-01-11T03:47:35.530Z,0.00
2019-01-11T03:48:35.396Z,0.00
2019-01-11T03:49:35.338Z,0.00
2019-01-11T03:50:35.305Z,0.00
2019-01-11T03:51:35.246Z,0.00
2019-01-11T03:52:35.208Z,0.00
2019-01-11T03:53:35.177Z,0.00
2019-01-11T03:54:35.121Z,0.00
2019-01-11T03:55:35.071Z,0.00
2019-01-11T03:56:35.030Z,0.00
2019-01-11T03:57:34.985Z,0.00
2019-01-11T03:58:34.942Z,0.00
2019-01-11T03:59:34.892Z,0.00
2019-01-11T04:00:34.834Z,0.00
2019-01-11T04:01:34.801Z,0.00
2019-01-11T04:02:34.755Z,0.00
2019-01-11T04:03:34.705Z,0.00
2019-01-11T04:04:34.650Z,0.00
2019-01-11T04:05:34.820Z,0.00
2019-01-11T04:06:34.580Z,0.00
2019-01-11T04:07:34.526Z,0.00
2019-01-11T04:08:34.490Z,0.00
2019-01-11T04:09:34.434Z,0.00
2019-01-11T04:10:34.397Z,0.00
2019-01-11T04:11:34.337Z,0.00
2019-01-11T04:12:34.297Z,0.00
2019-01-11T04:13:34.245Z,0.00
2019-01-11T04:14:34.199Z,0.00
2019-01-11T04:15:34.146Z,0.00
2019-01-11T04:16:34.122Z,0.00
2019-01-11T04:17:34.076Z,0.00
2019-01-11T04:18:34.030Z,0.00
2019-01-11T04:19:33.963Z,0.00
2019-01-11T04:20:33.926Z,0.00
2019-01-11T04:21:33.896Z,0.00
2019-01-11T04:22:33.835Z,0.00
2019-01-11T04:23:33.793Z,0.00
2019-01-11T04:24:33.742Z,0.00
2019-01-11T04:25:33.702Z,0.00
2019-01-11T04:26:33.664Z,0.00
2019-01-11T04:27:33.611Z,0.00
2019-01-11T04:28:33.585Z,0.00
2019-01-11T04:29:33.527Z,0.00
2019-01-11T04:30:33.473Z,0.00
2019-01-11T04:31:33.414Z,0.00
2019-01-11T04:32:33.376Z,0.00
2019-01-11T04:33:33.330Z,0.00
2019-01-11T04:34:33.278Z,0.00
2019-01-11T04:35:33.239Z,0.00
2019-01-11T04:36:33.199Z,0.00
2019-01-11T04:37:33.140Z,0.00
2019-01-11T04:38:33.114Z,0.00
2019-01-11T04:39:33.070Z,0.00
2019-01-11T04:40:34.308Z,0.00
2019-01-11T04:41:32.968Z,0.00
2019-01-11T04:42:32.911Z,0.00
2019-01-11T04:43:32.880Z,0.00
2019-01-11T04:44:32.820Z,0.00
2019-01-11T04:45:32.787Z,0.00
2019-01-11T04:46:32.738Z,0.00
2019-01-11T04:47:32.690Z,0.00
2019-01-11T04:48:32.659Z,0.00
2019-01-11T04:49:32.598Z,0.00
2019-01-11T04:50:32.546Z,0.00
2019-01-11T04:51:32.507Z,0.00
2019-01-11T04:52:32.475Z,0.00
2019-01-11T04:53:32.430Z,0.00
2019-01-11T04:54:32.362Z,0.00
2019-01-11T04:55:32.316Z,0.00
2019-01-11T04:56:32.283Z,0.00
2019-01-11T04:57:32.234Z,0.00
2019-01-11T04:58:32.192Z,0.00
2019-01-11T04:59:32.154Z,0.00
2019-01-11T05:00:32.097Z,0.00
2019-01-11T05:01:32.042Z,0.00
2019-01-11T05:02:31.996Z,0.00
2019-01-11T05:03:32.021Z,0.00
2019-01-11T05:04:31.919Z,0.00
2019-01-11T05:05:31.859Z,0.00
2019-01-11T05:06:31.835Z,0.00
2019-01-11T05:07:31.789Z,0.00
2019-01-11T05:08:31.734Z,0.00
2019-01-11T05:09:31.699Z,0.00
2019-01-11T05:10:31.645Z,0.00
2019-01-11T05:11:31.592Z,0.00
2019-01-11T05:12:31.560Z,0.00
2019-01-11T05:13:31.493Z,0.00
2019-01-11T05:14:31.455Z,0.00
2019-01-11T05:15:31.424Z,0.00
2019-01-11T05:16:31.390Z,0.00
2019-01-11T05:17:31.319Z,0.00
2019-01-11T05:18:31.277Z,0.00
2019-01-11T05:19:31.241Z,0.00
2019-01-11T05:20:31.186Z,0.00
2019-01-11T05:21:31.141Z,0.00
2019-01-11T05:22:31.103Z,0.00
2019-01-11T05:23:31.036Z,0.00
2019-01-11T05:24:30.997Z,0.00
2019-01-11T05:25:31.011Z,0.00
2019-01-11T05:26:30.902Z,0.00
2019-01-11T05:27:30.860Z,0.00
2019-01-11T05:28:30.815Z,0.00
2019-01-11T05:29:30.773Z,0.00
2019-01-11T05:30:30.737Z,0.00
2019-01-11T05:31:30.670Z,0.00
2019-01-11T05:32:30.642Z,0.00
2019-01-11T05:33:30.586Z,0.00
2019-01-11T05:34:30.558Z,0.00
2019-01-11T05:35:30.496Z,0.00
2019-01-11T05:36:30.441Z,0.00
2019-01-11T05:37:30.408Z,0.00
2019-01-11T05:38:30.373Z,0.00
2019-01-11T05:39:30.312Z,0.00
2019-01-11T05:40:30.271Z,0.00
2019-01-11T05:41:30.219Z,0.00
2019-01-11T05:42:30.188Z,0.00
2019-01-11T05:43:30.135Z,0.00
2019-01-11T05:44:30.087Z,0.00
2019-01-11T05:45:30.041Z,0.00
2019-01-11T05:46:29.993Z,0.00
2019-01-11T05:47:29.944Z,0.00
2019-01-11T05:48:29.904Z,0.00
2019-01-11T05:49:29.859Z,0.00
2019-01-11T05:50:29.813Z,0.00
2019-01-11T05:51:29.761Z,0.00
2019-01-11T05:52:29.721Z,0.00
2019-01-11T05:53:29.683Z,0.00
2019-01-11T05:54:29.637Z,0.00
2019-01-11T05:55:29.578Z,0.00
2019-01-11T05:56:29.524Z,0.00
2019-01-11T05:57:29.492Z,0.00
2019-01-11T05:58:29.454Z,0.00
2019-01-11T05:59:29.400Z,0.00
2019-01-11T06:00:29.354Z,0.00
2019-01-11T06:01:29.317Z,0.00
2019-01-11T06:02:29.249Z,0.00
2019-01-11T06:03:29.204Z,0.00
2019-01-11T06:04:29.180Z,0.00
2019-01-11T06:05:29.134Z,0.00
2019-01-11T06:06:29.077Z,0.00
2019-01-11T06:07:29.023Z,0.00
2019-01-11T06:08:28.992Z,0.00
2019-01-11T06:09:28.950Z,0.00
2019-01-11T06:10:28.896Z,0.00
2019-01-11T06:11:28.850Z,0.00
2019-01-11T06:12:28.805Z,0.00
2019-01-11T06:13:28.758Z,0.00
2019-01-11T06:14:28.707Z,0.00
2019-01-11T06:15:28.666Z,0.00
2019-01-11T06:16:28.629Z,0.00
2019-01-11T06:17:28.583Z,0.00
2019-01-11T06:18:28.540Z,0.00
2019-01-11T06:19:28.471Z,0.00
2019-01-11T06:20:30.370Z,0.00
2019-01-11T06:21:28.401Z,0.00
2019-01-11T06:22:28.355Z,0.00
2019-01-11T06:23:28.300Z,0.00
2019-01-11T06:24:28.263Z,0.00
2019-01-11T06:25:28.209Z,0.00
2019-01-11T06:26:28.164Z,0.00
2019-01-11T06:27:28.111Z,0.00
2019-01-11T06:28:28.067Z,0.00
2019-01-11T06:29:28.029Z,0.00
2019-01-11T06:30:27.975Z,0.00
2019-01-11T06:31:27.921Z,0.00
2019-01-11T06:32:27.882Z,0.00
2019-01-11T06:33:27.836Z,0.00
2019-01-11T06:34:27.796Z,0.00
2019-01-11T06:35:27.739Z,0.00
2019-01-11T06:36:27.702Z,0.00
2019-01-11T06:37:27.653Z,0.00
2019-01-11T06:38:27.599Z,0.00
2019-01-11T06:39:27.569Z,0.00
2019-01-11T06:40:27.508Z,0.00
2019-01-11T06:41:27.474Z,0.00
2019-01-11T06:42:27.416Z,0.00
2019-01-11T06:43:27.378Z,0.00
2019-01-11T06:44:28.738Z,0.00
2019-01-11T06:45:27.282Z,0.00
2019-01-11T06:46:27.232Z,0.00
2019-01-11T06:47:27.188Z,0.00
2019-01-11T06:48:27.162Z,0.00
2019-01-11T06:49:27.116Z,0.00
2019-01-11T06:50:27.049Z,0.00
2019-01-11T06:51:27.021Z,0.00
2019-01-11T06:52:26.957Z,0.00
2019-01-11T06:53:26.919Z,0.00
2019-01-11T06:54:26.873Z,0.00
2019-01-11T06:55:26.820Z,0.00
2019-01-11T06:56:26.787Z,0.00
2019-01-11T06:57:26.742Z,0.00
2019-01-11T06:58:26.689Z,0.00
2019-01-11T06:59:26.636Z,0.00
2019-01-11T07:00:26.613Z,0.00
2019-01-11T07:01:26.568Z,0.00
2019-01-11T07:02:26.506Z,0.00
2019-01-11T07:03:26.469Z,0.00
2019-01-11T07:04:26.428Z,0.00
2019-01-11T07:05:26.361Z,0.00
2019-01-11T07:06:26.328Z,0.00
2019-01-11T07:07:26.278Z,0.00
2019-01-11T07:08:26.245Z,0.00
2019-01-11T07:09:26.185Z,0.00
2019-01-11T07:10:26.139Z,0.00
2019-01-11T07:11:26.094Z,0.00
2019-01-11T07:12:26.042Z,0.00
2019-01-11T07:13:26.002Z,0.00
2019-01-11T07:14:25.970Z,0.00
2019-01-11T07:15:25.903Z,0.00
2019-01-11T07:16:25.857Z,0.00
2019-01-11T07:17:25.833Z,0.00
2019-01-11T07:18:25.787Z,0.00
2019-01-11T07:19:25.728Z,0.00
2019-01-11T07:20:25.683Z,0.00
2019-01-11T07:21:25.629Z,0.00
2019-01-11T07:22:25.605Z,0.00
2019-01-11T07:23:25.550Z,0.00
2019-01-11T07:24:25.547Z,0.00
2019-01-11T07:25:25.458Z,0.00
2019-01-11T07:26:25.413Z,0.00
2019-01-11T07:27:25.354Z,0.00
2019-01-11T07:28:25.317Z,0.00
2019-01-11T07:29:25.270Z,0.00
2019-01-11T07:30:25.238Z,0.00
2019-01-11T07:31:25.186Z,0.00
2019-01-11T07:32:25.146Z,0.00
2019-01-11T07:33:25.079Z,0.00
2019-01-11T07:34:25.046Z,0.00
2019-01-11T07:35:25.009Z,0.00
2019-01-11T07:36:24.943Z,0.00
2019-01-11T07:37:24.905Z,0.00
2019-01-11T07:38:24.849Z,0.00
2019-01-11T07:39:24.825Z,0.00
2019-01-11T07:40:24.766Z,0.00
2019-01-11T07:41:24.722Z,0.00
2019-01-11T07:42:24.675Z,0.00
2019-01-11T07:43:24.644Z,0.00
2019-01-11T07:44:24.587Z,0.00
2019-01-11T07:45:24.551Z,0.00
2019-01-11T07:46:24.482Z,0.00
2019-01-11T07:47:24.444Z,0.00
2019-01-11T07:48:24.404Z,0.00
2019-01-11T07:49:24.358Z,0.00
2019-01-11T07:50:24.312Z,0.00
2019-01-11T07:51:24.275Z,0.00
2019-01-11T07:52:24.228Z,0.00
2019-01-11T07:53:24.162Z,0.00
2019-01-11T07:54:24.129Z,0.00
2019-01-11T07:55:24.072Z,0.00
2019-01-11T07:56:24.046Z,0.00
2019-01-11T07:57:24.002Z,0.00
2019-01-11T07:58:23.946Z,0.00
2019-01-11T07:59:23.894Z,0.00
2019-01-11T08:00:23.841Z,0.00
2019-01-11T08:01:23.796Z,0.00
2019-01-11T08:02:23.760Z,0.00
2019-01-11T08:03:24.907Z,0.00
2019-01-11T08:04:23.679Z,0.00
2019-01-11T08:05:23.612Z,0.00
2019-01-11T08:06:23.567Z,0.00
2019-01-11T08:07:23.542Z,0.00
2019-01-11T08:08:23.487Z,0.00
2019-01-11T08:09:23.471Z,0.00
2019-01-11T08:10:23.383Z,0.00
2019-01-11T08:11:23.345Z,0.00
2019-01-11T08:12:23.301Z,0.00
2019-01-11T08:13:23.258Z,0.00
2019-01-11T08:14:23.199Z,0.00
2019-01-11T08:15:23.154Z,0.00
2019-01-11T08:16:23.130Z,0.00
2019-01-11T08:17:23.062Z,0.00
2019-01-11T08:18:23.016Z,0.00
2019-01-11T08:19:22.972Z,0.00
2019-01-11T08:20:22.925Z,0.00
2019-01-11T08:21:22.894Z,0.00
2019-01-11T08:22:22.846Z,0.00
2019-01-11T08:23:22.800Z,0.00
2019-01-11T08:24:22.742Z,0.00
2019-01-11T08:25:22.709Z,0.00
2019-01-11T08:26:22.670Z,0.00
2019-01-11T08:27:22.625Z,5.63
2019-01-11T08:28:22.564Z,5.63
2019-01-11T08:29:22.512Z,5.63
2019-01-11T08:30:22.479Z,5.63
2019-01-11T08:31:22.430Z,5.63
2019-01-11T08:32:22.390Z,5.63
2019-01-11T08:33:22.342Z,5.63
2019-01-11T08:34:22.283Z,5.63
2019-01-11T08:35:22.237Z,11.25
2019-01-11T08:36:22.207Z,11.25
2019-01-11T08:37:22.155Z,11.25
2019-01-11T08:38:22.108Z,11.25
2019-01-11T08:39:22.075Z,11.25
2019-01-11T08:40:22.029Z,16.88
2019-01-11T08:41:23.262Z,16.88
2019-01-11T08:42:21.937Z,16.88
2019-01-11T08:43:21.870Z,16.88
2019-01-11T08:44:21.836Z,22.50
2019-01-11T08:45:21.799Z,22.50
2019-01-11T08:46:21.745Z,22.50
2019-01-11T08:47:21.707Z,22.50
2019-01-11T08:48:21.653Z,22.50
2019-01-11T08:49:21.607Z,33.75
2019-01-11T08:50:21.561Z,33.75
2019-01-11T08:51:21.511Z,22.50
2019-01-11T08:52:21.457Z,22.50
2019-01-11T08:53:21.423Z,22.50
2019-01-11T08:54:21.365Z,22.50
2019-01-11T08:55:21.321Z,22.50
2019-01-11T08:56:21.286Z,22.50
2019-01-11T08:57:21.250Z,22.50
2019-01-11T08:58:21.191Z,22.50
2019-01-11T08:59:21.157Z,22.50
2019-01-11T09:00:21.113Z,39.38
2019-01-11T09:01:21.053Z,56.25
2019-01-11T09:02:21.011Z,39.38
2019-01-11T09:03:20.961Z,28.13
2019-01-11T09:04:20.906Z,16.88
2019-01-11T09:05:20.882Z,16.88
2019-01-11T09:06:20.825Z,22.50
2019-01-11T09:07:20.790Z,22.50
2019-01-11T09:08:20.733Z,22.50
2019-01-11T09:09:20.685Z,22.50
2019-01-11T09:10:22.974Z,22.50
2019-01-11T09:11:20.599Z,28.13
2019-01-11T09:12:20.561Z,28.13
2019-01-11T09:13:20.516Z,33.75
2019-01-11T09:14:20.470Z,33.75
2019-01-11T09:15:20.404Z,39.38
2019-01-11T09:16:20.747Z,39.38
2019-01-11T09:17:20.324Z,39.38
2019-01-11T09:18:20.273Z,45.00
2019-01-11T09:19:20.228Z,56.25
2019-01-11T09:20:20.183Z,73.13
2019-01-11T09:21:20.142Z,61.88
2019-01-11T09:22:20.096Z,67.50
2019-01-11T09:23:20.046Z,67.50
2019-01-11T09:24:20.001Z,73.13
2019-01-11T09:25:19.967Z,78.75
2019-01-11T09:26:19.922Z,90.00
2019-01-11T09:27:19.862Z,101.25
2019-01-11T09:28:19.818Z,135.00
2019-01-11T09:29:19.765Z,157.50
2019-01-11T09:30:19.740Z,208.13
2019-01-11T09:31:19.674Z,225.00
2019-01-11T09:32:19.653Z,247.50
2019-01-11T09:33:20.564Z,241.88
2019-01-11T09:34:19.541Z,185.63
2019-01-11T09:35:19.505Z,180.00
2019-01-11T09:36:19.486Z,185.63
2019-01-11T09:37:19.425Z,151.88
2019-01-11T09:38:19.477Z,157.50
2019-01-11T09:39:19.336Z,168.75
2019-01-11T09:40:19.280Z,196.88
2019-01-11T09:41:19.255Z,343.13
2019-01-11T09:42:19.199Z,472.50
2019-01-11T09:43:19.131Z,427.50
2019-01-11T09:44:19.094Z,916.88
2019-01-11T09:45:19.046Z,973.13
2019-01-11T09:46:19.006Z,956.25
2019-01-11T09:47:18.960Z,900.00
2019-01-11T09:48:18.930Z,905.63
2019-01-11T09:49:18.888Z,933.75
2019-01-11T09:50:18.835Z,939.38
2019-01-11T09:51:18.792Z,1018.13
2019-01-11T09:52:18.747Z,1029.38
2019-01-11T09:53:18.691Z,798.75
2019-01-11T09:54:18.656Z,838.13
2019-01-11T09:55:18.614Z,320.63
2019-01-11T09:56:18.576Z,208.13
2019-01-11T09:57:18.534Z,196.88
2019-01-11T09:58:18.492Z,180.00
2019-01-11T09:59:18.458Z,163.13
2019-01-11T10:00:18.403Z,151.88
2019-01-11T10:01:18.353Z,213.75
2019-01-11T10:02:18.331Z,500.63
2019-01-11T10:03:18.269Z,354.38
2019-01-11T10:04:18.234Z,303.75
2019-01-11T10:05:18.195Z,213.75
2019-01-11T10:06:18.165Z,208.13
2019-01-11T10:07:18.118Z,292.50
2019-01-11T10:08:18.075Z,466.88
2019-01-11T10:09:18.025Z,663.75
2019-01-11T10:10:17.982Z,388.13
2019-01-11T10:11:17.933Z,461.25
2019-01-11T10:12:17.895Z,309.38
2019-01-11T10:13:17.857Z,208.13
2019-01-11T10:14:17.796Z,185.63
2019-01-11T10:15:17.766Z,180.00
2019-01-11T10:16:17.710Z,185.63
2019-01-11T10:17:17.680Z,191.25
2019-01-11T10:18:17.631Z,213.75
2019-01-11T10:19:17.593Z,219.38
2019-01-11T10:20:17.557Z,225.00
2019-01-11T10:21:22.362Z,225.00
2019-01-11T10:22:17.462Z,225.00
2019-01-11T10:23:17.420Z,225.00
2019-01-11T10:24:17.370Z,225.00
2019-01-11T10:25:17.339Z,230.63
2019-01-11T10:26:17.274Z,247.50
2019-01-11T10:27:17.251Z,270.00
2019-01-11T10:28:17.207Z,286.88
2019-01-11T10:29:17.155Z,309.38
2019-01-11T10:30:17.121Z,365.63
2019-01-11T10:31:17.069Z,388.13
2019-01-11T10:32:17.023Z,320.63
2019-01-11T10:33:16.989Z,241.88
2019-01-11T10:34:16.944Z,230.63
2019-01-11T10:35:16.903Z,230.63
2019-01-11T10:36:16.834Z,208.13
2019-01-11T10:37:16.812Z,185.63
2019-01-11T10:38:16.748Z,174.38
2019-01-11T10:39:16.727Z,168.75
2019-01-11T10:40:16.667Z,168.75
2019-01-11T10:41:16.628Z,168.75
2019-01-11T10:42:16.581Z,174.38
2019-01-11T10:43:16.536Z,180.00
2019-01-11T10:44:16.499Z,163.13
2019-01-11T10:45:16.451Z,168.75
2019-01-11T10:46:16.404Z,168.75
2019-01-11T10:47:16.377Z,168.75
2019-01-11T10:48:16.306Z,163.13
2019-01-11T10:49:16.271Z,157.50
2019-01-11T10:50:16.242Z,163.13
2019-01-11T10:51:19.035Z,163.13
2019-01-11T10:52:16.149Z,174.38
2019-01-11T10:53:16.098Z,185.63
2019-01-11T10:54:16.050Z,202.50
2019-01-11T10:55:16.024Z,230.63
2019-01-11T10:56:15.974Z,230.63
2019-01-11T10:57:15.912Z,225.00
2019-01-11T10:58:15.886Z,230.63
2019-01-11T10:59:15.830Z,241.88
2019-01-11T11:00:15.789Z,286.88
2019-01-11T11:01:15.737Z,303.75
2019-01-11T11:02:15.710Z,303.75
2019-01-11T11:03:15.667Z,303.75
2019-01-11T11:04:15.621Z,275.63
2019-01-11T11:05:15.567Z,303.75
2019-01-11T11:06:15.521Z,309.38
2019-01-11T11:07:15.468Z,309.38
2019-01-11T11:08:15.437Z,309.38
2019-01-11T11:09:15.399Z,303.75
2019-01-11T11:10:15.759Z,303.75
2019-01-11T11:11:16.674Z,303.75
2019-01-11T11:12:15.258Z,298.13
2019-01-11T11:13:15.220Z,298.13
2019-01-11T11:14:15.183Z,298.13
2019-01-11T11:15:15.121Z,298.13
2019-01-11T11:16:15.275Z,298.13
2019-01-11T11:17:15.052Z,292.50
2019-01-11T11:18:15.000Z,286.88
2019-01-11T11:19:14.956Z,286.88
2019-01-11T11:20:14.916Z,281.25
2019-01-11T11:21:14.871Z,281.25
2019-01-11T11:22:15.022Z,275.63
2019-01-11T11:23:14.785Z,275.63
2019-01-11T11:24:14.750Z,275.63
2019-01-11T11:25:14.687Z,275.63
2019-01-11T11:26:14.649Z,275.63
2019-01-11T11:27:14.606Z,270.00
2019-01-11T11:28:14.762Z,270.00
2019-01-11T11:29:14.532Z,264.38
2019-01-11T11:30:14.466Z,264.38
2019-01-11T11:31:14.451Z,264.38
2019-01-11T11:32:14.393Z,270.00
2019-01-11T11:33:14.351Z,270.00
2019-01-11T11:34:14.494Z,270.00
2019-01-11T11:35:14.272Z,270.00
2019-01-11T11:36:14.209Z,270.00
2019-01-11T11:37:17.745Z,270.00
2019-01-11T11:38:14.132Z,270.00
2019-01-11T11:39:14.089Z,264.38
2019-01-11T11:40:14.257Z,264.38
2019-01-11T11:41:14.013Z,258.75
2019-01-11T11:42:16.875Z,258.75
2019-01-11T11:43:13.919Z,258.75
2019-01-11T11:44:13.871Z,253.13
2019-01-11T11:45:13.842Z,253.13
2019-01-11T11:46:13.985Z,253.13
2019-01-11T11:47:13.742Z,247.50
2019-01-11T11:48:13.704Z,247.50
2019-01-11T11:49:13.655Z,247.50
2019-01-11T11:50:13.618Z,247.50
2019-01-11T11:51:13.567Z,241.88
2019-01-11T11:52:13.740Z,241.88
2019-01-11T11:53:13.477Z,241.88
2019-01-11T11:54:13.440Z,236.25
2019-01-11T11:55:13.401Z,241.88
2019-01-11T11:56:13.359Z,236.25
2019-01-11T11:57:13.303Z,236.25
2019-01-11T11:58:13.483Z,236.25
2019-01-11T11:59:13.233Z,213.75
2019-01-11T12:00:13.195Z,213.75
2019-01-11T12:01:13.139Z,241.88
2019-01-11T12:02:19.197Z,247.50
2019-01-11T12:03:13.069Z,241.88
2019-01-11T12:04:13.210Z,241.88
2019-01-11T12:05:12.971Z,241.88
2019-01-11T12:06:12.937Z,219.38
2019-01-11T12:07:12.894Z,225.00
2019-01-11T12:08:12.829Z,241.88
2019-01-11T12:09:12.799Z,247.50
2019-01-11T12:10:12.966Z,253.13
2019-01-11T12:11:12.713Z,253.13
2019-01-11T12:12:12.670Z,258.75
2019-01-11T12:13:12.632Z,258.75
2019-01-11T12:14:12.594Z,258.75
2019-01-11T12:15:12.542Z,258.75
2019-01-11T12:16:12.700Z,258.75
2019-01-11T12:17:12.456Z,253.13
2019-01-11T12:18:12.421Z,247.50
2019-01-11T12:19:12.381Z,247.50
2019-01-11T12:20:12.326Z,241.88
2019-01-11T12:21:12.278Z,241.88
2019-01-11T12:22:12.428Z,236.25
2019-01-11T12:23:12.208Z,236.25
2019-01-11T12:24:12.150Z,230.63
2019-01-11T12:25:12.113Z,230.63
2019-01-11T12:26:12.057Z,236.25
2019-01-11T12:27:12.026Z,236.25
2019-01-11T12:28:11.984Z,236.25
2019-01-11T12:29:11.937Z,236.25
2019-01-11T12:30:11.886Z,236.25
2019-01-11T12:31:11.850Z,230.63
2019-01-11T12:32:11.822Z,230.63
2019-01-11T12:33:11.756Z,225.00
2019-01-11T12:34:11.722Z,225.00
2019-01-11T12:35:11.696Z,225.00
2019-01-11T12:36:11.642Z,219.38
2019-01-11T12:37:11.594Z,219.38
2019-01-11T12:38:13.759Z,213.75
2019-01-11T12:39:11.521Z,213.75
2019-01-11T12:40:11.467Z,213.75
2019-01-11T12:41:11.420Z,213.75
2019-01-11T12:42:13.315Z,213.75
2019-01-11T12:43:11.343Z,208.13
2019-01-11T12:44:11.315Z,208.13
2019-01-11T12:45:11.253Z,208.13
2019-01-11T12:46:11.215Z,208.13
2019-01-11T12:47:11.181Z,208.13
2019-01-11T12:48:11.132Z,208.13
2019-01-11T12:49:11.083Z,202.50
2019-01-11T12:50:11.031Z,202.50
2019-01-11T12:51:11.004Z,208.13
2019-01-11T12:52:10.954Z,202.50
2019-01-11T12:53:10.925Z,208.13
2019-01-11T12:54:10.870Z,202.50
2019-01-11T12:55:10.840Z,202.50
2019-01-11T12:56:10.798Z,202.50
2019-01-11T12:57:10.746Z,196.88
2019-01-11T12:58:10.706Z,196.88
2019-01-11T12:59:10.662Z,196.88
2019-01-11T13:00:10.623Z,196.88
2019-01-11T13:01:10.577Z,196.88
2019-01-11T13:02:10.523Z,196.88